Time;durP1;ratioP1;P1;durP2;ratioP2;P2;SDS_P1;SDS_P2;PMS_P1;PMS_P2;Temp;Humidity;BMP_temperature;BMP_pressure;BME280_temperature;BME280_humidity;BME280_pressure;Samples;Min_cycle;Max_cycle;Signal;HPM_P1;HPM_P2
2022/05/07 00:01:47;;;;;;;;;;;27.50;38.80;;;;;;5066479;28;1905;-43
2022/05/07 00:04:14;;;;;;;;;;;27.50;38.80;;;;;;5075278;28;929;-45
2022/05/07 00:06:40;;;;;;;;;;;27.50;38.70;;;;;;5075202;28;994;-43
2022/05/07 00:09:07;;;;;;;;;;;27.50;38.70;;;;;;5075162;28;1000;-43
2022/05/07 00:11:34;;;;;;;;;;;27.50;38.80;;;;;;5075677;28;995;-42
2022/05/07 00:14:01;;;;;;;;;;;27.50;38.80;;;;;;5075803;28;1001;-43
2022/05/07 00:19:13;;;;;;;;;;;27.50;38.80;;;;;;5075901;28;632;-42
2022/05/07 00:21:40;;;;;;;;;;;27.50;38.80;;;;;;5076052;28;1919;-43
2022/05/07 00:24:07;;;;;;;;;;;27.50;38.90;;;;;;5075555;28;981;-43
2022/05/07 00:26:36;;;;;;;;;;;27.40;38.90;;;;;;5055866;28;1015;-43
2022/05/07 00:32:17;;;;;;;;;;;27.40;39.00;;;;;;5064881;28;1558;-44
2022/05/07 00:34:44;;;;;;;;;;;27.50;39.00;;;;;;5074543;28;985;-43
2022/05/07 00:37:11;;;;;;;;;;;27.50;39.00;;;;;;5075344;28;1146;-43
2022/05/07 00:39:38;;;;;;;;;;;27.40;38.80;;;;;;5073644;28;1077;-43
2022/05/07 00:42:05;;;;;;;;;;;27.40;39.00;;;;;;5073461;28;1914;-43
2022/05/07 00:44:32;;;;;;;;;;;27.40;39.00;;;;;;5073280;28;885;-43
2022/05/07 00:47:17;;;;;;;;;;;27.40;39.10;;;;;;5074170;28;1092;-43
2022/05/07 00:49:47;;;;;;;;;;;27.40;39.10;;;;;;5073770;28;993;-47
2022/05/07 00:52:13;;;;;;;;;;;27.40;39.10;;;;;;5073212;28;1118;-43
2022/05/07 00:54:40;;;;;;;;;;;27.40;39.00;;;;;;5073708;28;1040;-43
2022/05/07 00:57:08;;;;;;;;;;;27.40;39.00;;;;;;5073597;28;1082;-43
2022/05/07 00:59:35;;;;;;;;;;;27.40;39.10;;;;;;5072265;28;916;-43
2022/05/07 01:02:02;;;;;;;;;;;27.30;39.00;;;;;;5073244;28;1967;-43
2022/05/07 01:04:29;;;;;;;;;;;27.40;39.00;;;;;;5073046;28;933;-43
2022/05/07 01:06:57;;;;;;;;;;;27.40;38.90;;;;;;5072383;28;1075;-43
2022/05/07 01:09:24;;;;;;;;;;;27.40;39.00;;;;;;5071533;28;937;-43
2022/05/07 01:11:51;;;;;;;;;;;27.40;39.00;;;;;;5072618;28;1041;-43
2022/05/07 01:14:18;;;;;;;;;;;27.40;39.10;;;;;;5071623;28;1080;-42
2022/05/07 01:16:45;;;;;;;;;;;27.40;38.90;;;;;;5073675;28;1002;-43
2022/05/07 01:19:11;;;;;;;;;;;27.40;38.90;;;;;;5073087;28;853;-43
2022/05/07 01:21:40;;;;;;;;;;;27.30;39.10;;;;;;5072784;28;1905;-42
2022/05/07 01:24:07;;;;;;;;;;;27.30;38.90;;;;;;5073404;28;1000;-43
2022/05/07 01:26:34;;;;;;;;;;;27.30;39.00;;;;;;5073171;28;1092;-43
2022/05/07 01:29:01;;;;;;;;;;;27.30;39.10;;;;;;5073535;28;929;-43
2022/05/07 01:31:28;;;;;;;;;;;27.30;39.00;;;;;;5072899;28;965;-43
2022/05/07 01:33:54;;;;;;;;;;;27.30;39.10;;;;;;5073734;28;1010;-41
2022/05/07 01:36:21;;;;;;;;;;;27.30;39.00;;;;;;5071969;28;989;-42
2022/05/07 01:38:49;;;;;;;;;;;27.30;39.10;;;;;;5071471;28;1043;-42
2022/05/07 01:41:16;;;;;;;;;;;27.30;39.10;;;;;;5072124;28;1910;-42
2022/05/07 01:43:43;;;;;;;;;;;27.30;39.00;;;;;;5071608;28;1034;-41
2022/05/07 01:48:09;;;;;;;;;;;27.30;39.00;;;;;;5072057;28;1774;-42
2022/05/07 01:48:55;;;;;;;;;;;27.30;39.00;;;;;;5074938;28;839;-42
2022/05/07 01:51:22;;;;;;;;;;;27.40;39.00;;;;;;5076506;28;896;-40
2022/05/07 01:53:50;;;;;;;;;;;27.30;39.10;;;;;;5076108;28;932;-41
2022/05/07 01:56:16;;;;;;;;;;;27.30;39.10;;;;;;5077371;28;1086;-42
2022/05/07 01:58:44;;;;;;;;;;;27.30;39.00;;;;;;5076080;28;1031;-44
2022/05/07 02:01:11;;;;;;;;;;;27.30;39.00;;;;;;5074834;28;1894;-41
2022/05/07 02:03:38;;;;;;;;;;;27.30;39.00;;;;;;5075722;28;989;-40
2022/05/07 02:06:05;;;;;;;;;;;27.30;39.10;;;;;;5074539;28;989;-44
2022/05/07 02:08:31;;;;;;;;;;;27.30;39.10;;;;;;5075694;28;1005;-43
2022/05/07 02:11:01;;;;;;;;;;;27.30;39.00;;;;;;5075440;28;1036;-44
2022/05/07 02:13:28;;;;;;;;;;;27.30;39.10;;;;;;5075806;28;993;-43
2022/05/07 02:15:55;;;;;;;;;;;27.30;39.00;;;;;;5075456;28;936;-43
2022/05/07 02:18:21;;;;;;;;;;;27.30;39.10;;;;;;5076370;28;988;-41
2022/05/07 02:20:49;;;;;;;;;;;27.20;39.00;;;;;;5075899;28;1971;-43
2022/05/07 02:23:17;;;;;;;;;;;27.20;39.10;;;;;;5076628;28;949;-43
2022/05/07 02:25:43;;;;;;;;;;;27.20;39.10;;;;;;5076178;28;947;-44
2022/05/07 02:28:11;;;;;;;;;;;27.20;39.20;;;;;;5075665;28;1000;-44
2022/05/07 02:30:38;;;;;;;;;;;27.30;39.20;;;;;;5075975;28;992;-41
2022/05/07 02:33:05;;;;;;;;;;;27.20;39.20;;;;;;5076173;28;658;-44
2022/05/07 02:35:32;;;;;;;;;;;27.20;39.30;;;;;;5075788;28;1016;-43
2022/05/07 02:37:59;;;;;;;;;;;27.20;39.20;;;;;;5075054;28;941;-43
2022/05/07 02:40:25;;;;;;;;;;;27.20;39.20;;;;;;5075310;28;1008;-44
2022/05/07 02:42:51;;;;;;;;;;;27.20;39.10;;;;;;5075955;28;1968;-42
2022/05/07 02:45:19;;;;;;;;;;;27.20;39.20;;;;;;5076222;28;923;-43
2022/05/07 02:47:46;;;;;;;;;;;27.20;39.10;;;;;;5075564;28;965;-44
2022/05/07 02:50:13;;;;;;;;;;;27.20;39.20;;;;;;5075270;28;873;-42
2022/05/07 02:55:42;;;;;;;;;;;27.20;39.20;;;;;;5076331;28;1014;-43
2022/05/07 02:58:09;;;;;;;;;;;27.20;39.10;;;;;;5075695;28;917;-42
2022/05/07 03:00:37;;;;;;;;;;;27.20;39.10;;;;;;5074534;28;985;-44
2022/05/07 03:03:04;;;;;;;;;;;27.20;39.10;;;;;;5074684;28;1906;-44
2022/05/07 03:05:30;;;;;;;;;;;27.20;39.00;;;;;;5075709;28;1687;-43
2022/05/07 03:07:59;;;;;;;;;;;27.30;39.10;;;;;;5075735;28;969;-41
2022/05/07 03:10:26;;;;;;;;;;;27.20;39.20;;;;;;5075522;28;972;-43
2022/05/07 03:12:53;;;;;;;;;;;27.20;39.20;;;;;;5075021;28;873;-41
2022/05/07 03:15:20;;;;;;;;;;;27.20;39.20;;;;;;5074501;28;928;-44
2022/05/07 03:17:48;;;;;;;;;;;27.20;39.10;;;;;;5075217;28;937;-44
2022/05/07 03:20:17;;;;;;;;;;;27.20;39.00;;;;;;5074496;28;1080;-42
2022/05/07 03:22:44;;;;;;;;;;;27.20;39.10;;;;;;5074117;28;1910;-43
2022/05/07 03:25:11;;;;;;;;;;;27.20;39.20;;;;;;5073667;28;1110;-43
2022/05/07 03:27:38;;;;;;;;;;;27.10;39.20;;;;;;5074510;28;981;-44
2022/05/07 03:30:06;;;;;;;;;;;27.20;39.30;;;;;;5074527;28;1040;-39
2022/05/07 03:32:33;;;;;;;;;;;27.20;39.20;;;;;;5074508;28;1009;-43
2022/05/07 03:35:01;;;;;;;;;;;27.20;39.20;;;;;;5075365;28;987;-42
2022/05/07 03:37:28;;;;;;;;;;;27.20;39.30;;;;;;5074513;28;929;-42
2022/05/07 03:39:55;;;;;;;;;;;27.20;39.30;;;;;;5073482;28;960;-43
2022/05/07 03:42:22;;;;;;;;;;;27.10;39.20;;;;;;5073349;28;1913;-44
2022/05/07 03:44:48;;;;;;;;;;;27.20;39.30;;;;;;5073822;28;1033;-43
2022/05/07 03:47:15;;;;;;;;;;;27.20;39.20;;;;;;5074211;28;1026;-44
2022/05/07 03:49:42;;;;;;;;;;;27.20;39.20;;;;;;5073047;28;925;-42
2022/05/07 03:54:54;;;;;;;;;;;27.20;39.20;;;;;;5072768;28;620;-44
2022/05/07 03:57:21;;;;;;;;;;;27.20;39.30;;;;;;5073418;28;1012;-42
2022/05/07 03:59:48;;;;;;;;;;;27.20;39.30;;;;;;5072346;28;1278;-44
2022/05/07 04:02:15;;;;;;;;;;;27.10;39.30;;;;;;5075116;28;1913;-43
2022/05/07 04:04:42;;;;;;;;;;;27.10;39.30;;;;;;5072876;28;1028;-44
2022/05/07 04:07:10;;;;;;;;;;;27.20;39.20;;;;;;5073299;28;985;-44
2022/05/07 04:09:37;;;;;;;;;;;27.20;39.20;;;;;;5073666;28;923;-43
2022/05/07 04:12:04;;;;;;;;;;;27.20;39.20;;;;;;5073094;28;1222;-42
2022/05/07 04:14:31;;;;;;;;;;;27.20;39.10;;;;;;5073333;28;1017;-44
2022/05/07 04:16:57;;;;;;;;;;;27.20;39.20;;;;;;5073097;28;991;-45
2022/05/07 04:19:24;;;;;;;;;;;27.20;39.20;;;;;;5073934;28;1003;-45
2022/05/07 04:21:51;;;;;;;;;;;27.20;39.20;;;;;;5072880;28;1971;-45
2022/05/07 04:24:19;;;;;;;;;;;27.10;39.20;;;;;;5073301;28;944;-45
2022/05/07 04:26:46;;;;;;;;;;;27.10;39.20;;;;;;5073694;28;1109;-44
2022/05/07 04:29:16;;;;;;;;;;;27.10;39.20;;;;;;5073140;28;1844;-42
2022/05/07 04:31:43;;;;;;;;;;;27.10;39.10;;;;;;5073386;28;1016;-42
2022/05/07 04:34:10;;;;;;;;;;;27.10;39.30;;;;;;5073422;28;882;-43
2022/05/07 04:36:37;;;;;;;;;;;27.10;39.40;;;;;;5073360;28;982;-43
2022/05/07 04:39:04;;;;;;;;;;;27.10;39.20;;;;;;5073526;28;1033;-44
2022/05/07 04:41:32;;;;;;;;;;;27.10;39.30;;;;;;5073645;28;1979;-42
2022/05/07 04:44:01;;;;;;;;;;;27.10;39.30;;;;;;5072852;28;882;-45
2022/05/07 04:46:27;;;;;;;;;;;27.20;39.20;;;;;;5073488;28;1224;-41
2022/05/07 04:48:54;;;;;;;;;;;27.10;39.20;;;;;;5072578;28;1112;-43
2022/05/07 04:51:21;;;;;;;;;;;27.10;39.20;;;;;;5072253;28;1001;-43
2022/05/07 04:53:48;;;;;;;;;;;27.10;39.20;;;;;;5072206;28;949;-42
2022/05/07 04:56:15;;;;;;;;;;;27.10;39.20;;;;;;5072840;28;880;-43
2022/05/07 04:58:43;;;;;;;;;;;27.20;39.20;;;;;;5071930;28;980;-41
2022/05/07 05:01:10;;;;;;;;;;;27.10;39.20;;;;;;5071910;28;1076;-41
2022/05/07 05:03:36;;;;;;;;;;;27.10;39.20;;;;;;5071325;28;2097;-43
2022/05/07 05:06:03;;;;;;;;;;;27.10;39.20;;;;;;5073215;28;933;-43
2022/05/07 05:08:31;;;;;;;;;;;27.10;39.20;;;;;;5071531;28;945;-43
2022/05/07 05:10:57;;;;;;;;;;;27.10;39.20;;;;;;5072357;28;974;-42
2022/05/07 05:13:24;;;;;;;;;;;27.10;39.20;;;;;;5072946;28;985;-43
2022/05/07 05:15:52;;;;;;;;;;;27.10;39.20;;;;;;5071970;28;992;-43
2022/05/07 05:18:19;;;;;;;;;;;27.10;39.20;;;;;;5071612;28;1004;-42
2022/05/07 05:20:46;;;;;;;;;;;27.10;40.40;;;;;;5072355;28;1030;-43
2022/05/07 05:23:12;;;;;;;;;;;27.10;39.20;;;;;;5073907;28;1981;-43
2022/05/07 05:25:43;;;;;;;;;;;27.10;39.30;;;;;;5075938;28;924;-43
2022/05/07 05:28:11;;;;;;;;;;;27.10;39.40;;;;;;5075804;28;969;-43
2022/05/07 05:30:38;;;;;;;;;;;27.10;39.30;;;;;;5075517;28;956;-43
2022/05/07 05:33:06;;;;;;;;;;;27.10;39.30;;;;;;5075149;28;1007;-43
2022/05/07 05:35:33;;;;;;;;;;;27.10;39.40;;;;;;5076329;28;1009;-43
2022/05/07 05:38:00;;;;;;;;;;;27.10;39.40;;;;;;5075897;28;917;-43
2022/05/07 05:40:27;;;;;;;;;;;27.10;39.40;;;;;;5076077;28;904;-45
2022/05/07 05:42:54;;;;;;;;;;;27.00;39.30;;;;;;5075069;28;1906;-45
2022/05/07 05:45:20;;;;;;;;;;;27.10;39.50;;;;;;5073625;28;996;-43
2022/05/07 05:47:47;;;;;;;;;;;27.10;39.50;;;;;;5075232;28;842;-43
2022/05/07 05:50:15;;;;;;;;;;;27.10;39.40;;;;;;5074627;28;1007;-43
2022/05/07 05:52:42;;;;;;;;;;;27.10;39.50;;;;;;5075522;28;977;-43
2022/05/07 05:55:09;;;;;;;;;;;27.00;39.40;;;;;;5075457;28;1104;-42
2022/05/07 05:57:36;;;;;;;;;;;27.10;39.40;;;;;;5076078;28;937;-43
2022/05/07 06:00:02;;;;;;;;;;;27.10;39.50;;;;;;5074051;28;1004;-45
2022/05/07 06:02:29;;;;;;;;;;;27.00;39.40;;;;;;5073340;28;1914;-43
2022/05/07 06:04:56;;;;;;;;;;;27.10;39.40;;;;;;5073400;28;1027;-43
2022/05/07 06:07:24;;;;;;;;;;;27.10;39.40;;;;;;5074325;28;925;-43
2022/05/07 06:09:51;;;;;;;;;;;27.10;39.40;;;;;;5074701;28;944;-43
2022/05/07 06:12:18;;;;;;;;;;;27.10;39.50;;;;;;5072171;28;970;-42
2022/05/07 06:14:46;;;;;;;;;;;27.00;39.50;;;;;;5073364;28;1026;-42
2022/05/07 06:17:12;;;;;;;;;;;27.00;39.40;;;;;;5073680;28;993;-43
2022/05/07 06:19:39;;;;;;;;;;;27.10;39.50;;;;;;5074041;28;961;-43
2022/05/07 06:22:06;;;;;;;;;;;27.00;39.60;;;;;;5074183;28;1909;-43
2022/05/07 06:27:31;;;;;;;;;;;27.00;39.50;;;;;;5073251;28;1071;-43
2022/05/07 06:29:58;;;;;;;;;;;27.00;39.40;;;;;;5073355;28;1006;-42
2022/05/07 06:32:25;;;;;;;;;;;27.10;39.60;;;;;;5073234;28;904;-42
2022/05/07 06:34:52;;;;;;;;;;;27.10;39.60;;;;;;5073041;28;1827;-41
2022/05/07 06:37:19;;;;;;;;;;;27.10;39.50;;;;;;5074387;28;1135;-41
2022/05/07 06:39:47;;;;;;;;;;;27.20;39.50;;;;;;5073945;28;950;-40
2022/05/07 06:42:15;;;;;;;;;;;27.10;39.60;;;;;;5073580;28;1901;-42
2022/05/07 06:44:42;;;;;;;;;;;27.10;39.50;;;;;;5073280;28;969;-41
2022/05/07 06:47:09;;;;;;;;;;;27.20;39.40;;;;;;5074708;28;1031;-39
2022/05/07 06:49:36;;;;;;;;;;;27.20;39.40;;;;;;5073835;28;1039;-41
2022/05/07 06:52:03;;;;;;;;;;;27.20;39.40;;;;;;5072562;28;1024;-41
2022/05/07 06:54:30;;;;;;;;;;;27.20;39.40;;;;;;5070956;28;1029;-38
2022/05/07 06:56:58;;;;;;;;;;;27.20;39.50;;;;;;5072286;28;984;-42
2022/05/07 06:59:25;;;;;;;;;;;27.20;39.30;;;;;;5071834;28;945;-39
2022/05/07 07:01:54;;;;;;;;;;;27.20;39.40;;;;;;5072280;28;1020;-42
2022/05/07 07:04:21;;;;;;;;;;;27.20;39.30;;;;;;5070740;28;1909;-41
2022/05/07 07:06:49;;;;;;;;;;;27.20;39.50;;;;;;5071627;28;960;-41
2022/05/07 07:09:15;;;;;;;;;;;27.20;39.30;;;;;;5072339;28;965;-42
2022/05/07 07:11:42;;;;;;;;;;;27.20;39.30;;;;;;5071806;28;1185;-42
2022/05/07 07:14:11;;;;;;;;;;;27.20;39.30;;;;;;5070180;28;936;-40
2022/05/07 07:16:37;;;;;;;;;;;27.20;39.30;;;;;;5071917;28;1038;-43
2022/05/07 07:19:05;;;;;;;;;;;27.20;39.30;;;;;;5071390;28;1023;-41
2022/05/07 07:21:32;;;;;;;;;;;27.20;39.30;;;;;;5068465;28;901;-40
2022/05/07 07:24:00;;;;;;;;;;;27.20;39.50;;;;;;5068653;28;1914;-41
2022/05/07 07:26:27;;;;;;;;;;;27.20;39.30;;;;;;5070802;28;981;-42
2022/05/07 07:28:56;;;;;;;;;;;27.20;39.30;;;;;;5070728;28;1771;-42
2022/05/07 07:31:24;;;;;;;;;;;27.20;39.30;;;;;;5070919;28;941;-40
2022/05/07 07:33:51;;;;;;;;;;;27.20;39.30;;;;;;5070322;28;1032;-41
2022/05/07 07:36:18;;;;;;;;;;;27.30;39.40;;;;;;5070780;28;969;-43
2022/05/07 07:38:44;;;;;;;;;;;27.20;39.40;;;;;;5069350;28;1021;-43
2022/05/07 07:41:11;;;;;;;;;;;27.30;39.40;;;;;;5068261;28;937;-41
2022/05/07 07:43:38;;;;;;;;;;;27.30;39.30;;;;;;5069256;28;1989;-43
2022/05/07 07:48:52;;;;;;;;;;;27.30;39.30;;;;;;5069414;28;625;-43
2022/05/07 07:51:20;;;;;;;;;;;27.30;39.30;;;;;;5067320;28;953;-42
2022/05/07 07:53:47;;;;;;;;;;;27.20;39.20;;;;;;5068996;28;1016;-43
2022/05/07 07:56:14;;;;;;;;;;;27.30;39.30;;;;;;5068063;28;995;-43
2022/05/07 07:58:40;;;;;;;;;;;27.30;39.30;;;;;;5069016;28;845;-42
2022/05/07 08:01:07;;;;;;;;;;;27.30;39.20;;;;;;5070010;28;989;-41
2022/05/07 08:03:34;;;;;;;;;;;27.30;39.20;;;;;;5068915;28;1897;-44
2022/05/07 08:06:02;;;;;;;;;;;27.30;39.30;;;;;;5068677;28;968;-42
2022/05/07 08:13:57;;;;;;;;;;;27.20;39.30;;;;;;5068627;28;721;-43
2022/05/07 08:16:25;;;;;;;;;;;27.30;39.30;;;;;;5067007;28;889;-43
2022/05/07 08:18:51;;;;;;;;;;;27.30;39.20;;;;;;5066834;28;953;-43
2022/05/07 08:21:19;;;;;;;;;;;27.30;39.20;;;;;;5067356;28;900;-43
2022/05/07 08:23:46;;;;;;;;;;;27.20;39.30;;;;;;5068292;28;1976;-43
2022/05/07 08:26:13;;;;;;;;;;;27.20;39.30;;;;;;5066256;28;908;-43
2022/05/07 08:28:40;;;;;;;;;;;27.20;39.30;;;;;;5068412;28;937;-43
2022/05/07 08:31:07;;;;;;;;;;;27.20;39.30;;;;;;5068183;28;921;-43
2022/05/07 08:33:35;;;;;;;;;;;27.20;39.30;;;;;;5068244;28;1004;-43
2022/05/07 08:36:02;;;;;;;;;;;27.20;39.20;;;;;;5066277;28;1024;-43
2022/05/07 08:38:30;;;;;;;;;;;27.20;39.30;;;;;;5065540;28;897;-43
2022/05/07 08:40:59;;;;;;;;;;;27.20;39.30;;;;;;5066142;28;984;-41
2022/05/07 08:43:25;;;;;;;;;;;27.20;39.30;;;;;;5067575;28;1983;-40
2022/05/07 08:45:52;;;;;;;;;;;27.20;39.30;;;;;;5067430;28;880;-42
2022/05/07 08:48:19;;;;;;;;;;;27.20;39.20;;;;;;5068841;28;1027;-43
2022/05/07 08:50:46;;;;;;;;;;;27.20;39.20;;;;;;5065584;28;964;-42
2022/05/07 08:53:13;;;;;;;;;;;27.20;39.20;;;;;;5065708;28;1040;-43
2022/05/07 08:55:41;;;;;;;;;;;27.20;39.20;;;;;;5066266;28;968;-43
2022/05/07 08:58:08;;;;;;;;;;;27.20;39.20;;;;;;5069531;28;989;-43
2022/05/07 09:00:38;;;;;;;;;;;27.20;39.30;;;;;;5072445;28;1009;-43
2022/05/07 09:03:04;;;;;;;;;;;27.20;39.30;;;;;;5071824;28;1905;-42
2022/05/07 09:05:32;;;;;;;;;;;27.20;39.20;;;;;;5071524;28;884;-41
2022/05/07 09:07:59;;;;;;;;;;;27.20;39.30;;;;;;5070031;28;976;-43
2022/05/07 09:10:27;;;;;;;;;;;27.20;39.30;;;;;;5070633;28;1010;-42
2022/05/07 09:12:56;;;;;;;;;;;27.20;39.20;;;;;;5070689;28;950;-43
2022/05/07 09:15:24;;;;;;;;;;;27.20;39.20;;;;;;5072078;28;893;-43
2022/05/07 09:17:51;;;;;;;;;;;27.20;39.20;;;;;;5070943;28;1005;-41
2022/05/07 09:20:19;;;;;;;;;;;27.20;39.30;;;;;;5072346;28;1016;-43
2022/05/07 09:22:53;;;;;;;;;;;27.20;39.40;;;;;;5072607;28;1993;-43
2022/05/07 09:25:21;;;;;;;;;;;27.20;39.30;;;;;;5072696;28;986;-43
2022/05/07 09:27:48;;;;;;;;;;;27.20;39.30;;;;;;5073268;28;928;-42
2022/05/07 09:30:21;;;;;;;;;;;27.20;39.30;;;;;;5071683;28;965;-43
2022/05/07 09:32:49;;;;;;;;;;;27.20;39.40;;;;;;5071760;28;1007;-43
2022/05/07 09:38:01;;;;;;;;;;;27.10;39.40;;;;;;5071295;28;676;-42
2022/05/07 09:40:28;;;;;;;;;;;27.20;39.40;;;;;;5073307;28;961;-43
2022/05/07 09:42:56;;;;;;;;;;;27.20;39.30;;;;;;5072719;28;1914;-43
2022/05/07 09:45:25;;;;;;;;;;;27.20;39.40;;;;;;5070411;28;988;-42
2022/05/07 09:47:52;;;;;;;;;;;27.20;39.40;;;;;;5070827;28;984;-42
2022/05/07 09:50:23;;;;;;;;;;;27.20;39.30;;;;;;5068133;28;1020;-42
2022/05/07 09:58:20;;;;;;;;;;;27.20;39.50;;;;;;5069680;28;653;-44
2022/05/07 10:00:55;;;;;;;;;;;27.20;39.50;;;;;;5070134;28;953;-43
2022/05/07 10:03:26;;;;;;;;;;;27.10;39.40;;;;;;5068461;28;1989;-46
2022/05/07 10:05:59;;;;;;;;;;;27.20;39.50;;;;;;5069621;28;929;-43
2022/05/07 10:08:32;;;;;;;;;;;27.20;39.40;;;;;;5067181;28;837;-44
2022/05/07 10:10:59;;;;;;;;;;;27.20;39.40;;;;;;5069824;28;1123;-44
2022/05/07 10:13:26;;;;;;;;;;;27.20;39.30;;;;;;5070014;28;1004;-43
2022/05/07 10:16:01;;;;;;;;;;;27.20;39.50;;;;;;5071043;28;1010;-44
2022/05/07 10:18:34;;;;;;;;;;;27.20;39.50;;;;;;5069049;28;864;-43
2022/05/07 10:21:11;;;;;;;;;;;27.20;39.60;;;;;;5070632;28;885;-44
2022/05/07 10:23:48;;;;;;;;;;;27.20;39.50;;;;;;5069173;28;1977;-44
2022/05/07 10:26:14;;;;;;;;;;;27.20;39.50;;;;;;5069843;28;896;-44
2022/05/07 10:28:42;;;;;;;;;;;27.40;38.70;;;;;;5071037;28;834;-44
2022/05/07 10:31:17;;;;;;;;;;;27.40;38.10;;;;;;5068793;28;999;-44
2022/05/07 10:33:44;;;;;;;;;;;27.40;37.10;;;;;;5068898;28;897;-44
2022/05/07 10:36:12;;;;;;;;;;;27.40;37.30;;;;;;5068436;28;1009;-44
2022/05/07 10:38:39;;;;;;;;;;;27.40;37.30;;;;;;5071188;28;1045;-44
2022/05/07 10:41:07;;;;;;;;;;;27.40;36.90;;;;;;5072185;28;1031;-44
2022/05/07 10:43:35;;;;;;;;;;;27.40;36.50;;;;;;5072162;28;1910;-44
2022/05/07 10:46:03;;;;;;;;;;;27.50;36.20;;;;;;5071612;28;1016;-44
2022/05/07 10:48:42;;;;;;;;;;;27.40;36.10;;;;;;5071159;28;968;-45
2022/05/07 10:51:17;;;;;;;;;;;27.40;35.70;;;;;;5071046;28;1122;-44
2022/05/07 10:53:43;;;;;;;;;;;27.50;35.40;;;;;;5069856;28;919;-42
2022/05/07 10:56:14;;;;;;;;;;;27.40;35.10;;;;;;5069202;28;1839;-43
2022/05/07 10:58:50;;;;;;;;;;;27.40;34.20;;;;;;5069906;28;977;-44
2022/05/07 11:01:18;;;;;;;;;;;27.50;34.40;;;;;;5068708;28;1036;-44
2022/05/07 11:03:46;;;;;;;;;;;27.40;34.40;;;;;;5070341;28;1978;-44
2022/05/07 11:06:13;;;;;;;;;;;27.30;34.50;;;;;;5070298;28;1038;-43
2022/05/07 11:08:46;;;;;;;;;;;27.30;34.60;;;;;;5068767;28;736;-43
2022/05/07 11:11:14;;;;;;;;;;;27.30;34.60;;;;;;5070254;28;980;-43
2022/05/07 11:13:45;;;;;;;;;;;27.40;34.40;;;;;;5069776;28;1005;-43
2022/05/07 11:16:12;;;;;;;;;;;27.40;34.40;;;;;;5070776;28;1031;-43
2022/05/07 11:18:40;;;;;;;;;;;27.30;34.40;;;;;;5069071;28;1246;-44
2022/05/07 11:21:08;;;;;;;;;;;27.30;34.60;;;;;;5067951;28;1004;-44
2022/05/07 11:23:39;;;;;;;;;;;27.30;34.50;;;;;;5072546;28;1989;-44
2022/05/07 11:26:12;;;;;;;;;;;27.20;34.90;;;;;;5071388;28;1328;-43
2022/05/07 11:28:40;;;;;;;;;;;27.20;35.20;;;;;;5070377;28;885;-46
2022/05/07 11:31:07;;;;;;;;;;;27.20;35.70;;;;;;5067338;28;979;-47
2022/05/07 11:33:34;;;;;;;;;;;27.20;35.90;;;;;;5068301;28;988;-47
2022/05/07 11:36:01;;;;;;;;;;;27.10;36.20;;;;;;5066123;28;996;-46
2022/05/07 11:38:30;;;;;;;;;;;27.20;36.30;;;;;;5066563;28;874;-46
2022/05/07 11:41:10;;;;;;;;;;;27.10;37.50;;;;;;5105711;27;1342;-35
2022/05/07 11:46:21;;;;;;;;;;;27.10;36.90;;;;;;5103624;28;641;-36
2022/05/07 11:48:48;;;;;;;;;;;27.10;37.00;;;;;;5101798;28;885;-36
2022/05/07 11:51:23;;;;;;;;;;;27.10;37.10;;;;;;5103599;28;900;-37
2022/05/07 11:53:50;;;;;;;;;;;27.10;37.20;;;;;;5104013;28;1008;-37
2022/05/07 11:56:18;;;;;;;;;;;27.10;37.40;;;;;;5104334;28;912;-37
2022/05/07 11:58:47;;;;;;;;;;;27.10;37.40;;;;;;5103448;28;1975;-37
2022/05/07 12:01:21;;;;;;;;;;;27.10;37.60;;;;;;5104363;28;1046;-37
2022/05/07 12:03:48;;;;;;;;;;;27.10;37.60;;;;;;5103773;28;994;-36
2022/05/07 12:06:25;;;;;;;;;;;27.10;37.50;;;;;;5104340;28;957;-37
2022/05/07 12:08:52;;;;;;;;;;;27.10;37.70;;;;;;5103659;28;1036;-37
2022/05/07 12:11:21;;;;;;;;;;;27.10;37.60;;;;;;5104593;28;797;-37
2022/05/07 12:13:48;;;;;;;;;;;27.10;37.60;;;;;;5104995;28;1032;-36
2022/05/07 12:18:58;;;;;;;;;;;27.10;37.60;;;;;;5105187;28;1906;-37
2022/05/07 12:29:52;;;;;;;;;;;27.20;37.80;;;;;;5105614;28;881;-38
2022/05/07 12:32:19;;;;;;;;;;;27.20;37.80;;;;;;5105533;28;963;-38
2022/05/07 12:34:46;;;;;;;;;;;27.20;37.80;;;;;;5104449;28;948;-37
2022/05/07 12:37:13;;;;;;;;;;;27.20;37.90;;;;;;5103578;28;980;-37
2022/05/07 12:39:40;;;;;;;;;;;27.30;37.80;;;;;;5101814;28;1992;-37
2022/05/07 12:42:09;;;;;;;;;;;27.30;37.60;;;;;;5103234;28;912;-36
2022/05/07 12:44:36;;;;;;;;;;;27.20;37.70;;;;;;5103228;28;1098;-37
2022/05/07 12:47:05;;;;;;;;;;;27.20;37.80;;;;;;5103121;28;789;-38
2022/05/07 12:49:31;;;;;;;;;;;27.20;37.80;;;;;;5102655;28;1025;-38
2022/05/07 12:51:58;;;;;;;;;;;27.20;37.80;;;;;;5090962;28;1017;-36
2022/05/07 12:54:25;;;;;;;;;;;27.30;37.20;;;;;;5087308;28;1037;-37
2022/05/07 12:56:52;;;;;;;;;;;27.40;36.30;;;;;;5087534;28;985;-36
2022/05/07 12:59:20;;;;;;;;;;;27.50;35.70;;;;;;5089875;28;1910;-37
2022/05/07 13:01:47;;;;;;;;;;;27.60;35.40;;;;;;5087269;28;850;-37
2022/05/07 13:04:13;;;;;;;;;;;27.60;34.60;;;;;;5089091;28;875;-37
2022/05/07 13:06:40;;;;;;;;;;;27.70;34.20;;;;;;5089822;28;897;-40
2022/05/07 13:09:07;;;;;;;;;;;27.70;34.30;;;;;;5088803;28;2190;-38
2022/05/07 13:11:33;;;;;;;;;;;27.70;34.10;;;;;;5089274;28;913;-37
2022/05/07 13:14:00;;;;;;;;;;;27.50;35.20;;;;;;5088119;28;955;-37
2022/05/07 13:16:29;;;;;;;;;;;27.50;34.30;;;;;;5088098;28;942;-37
2022/05/07 13:18:55;;;;;;;;;;;27.60;34.00;;;;;;5086336;28;1046;-37
2022/05/07 13:21:22;;;;;;;;;;;27.60;33.60;;;;;;5088351;28;1979;-37
2022/05/07 13:23:49;;;;;;;;;;;27.60;33.50;;;;;;5087839;28;1069;-37
2022/05/07 13:26:15;;;;;;;;;;;27.50;33.60;;;;;;5089192;28;920;-36
2022/05/07 13:28:42;;;;;;;;;;;27.50;33.80;;;;;;5089047;28;942;-37
2022/05/07 13:31:09;;;;;;;;;;;27.60;33.30;;;;;;5087512;28;877;-37
2022/05/07 13:33:39;;;;;;;;;;;27.60;33.60;;;;;;5088014;28;912;-37
2022/05/07 13:36:06;;;;;;;;;;;27.60;33.10;;;;;;5087883;28;921;-36
2022/05/07 13:38:33;;;;;;;;;;;27.50;33.50;;;;;;5087832;28;905;-35
2022/05/07 13:41:00;;;;;;;;;;;27.40;33.80;;;;;;5087602;28;1976;-36
2022/05/07 13:43:28;;;;;;;;;;;27.50;33.50;;;;;;5086514;28;869;-37
2022/05/07 13:45:56;;;;;;;;;;;27.50;33.30;;;;;;5088553;28;1155;-36
2022/05/07 13:48:23;;;;;;;;;;;27.60;33.20;;;;;;5087475;28;864;-35
2022/05/07 13:50:51;;;;;;;;;;;27.60;33.10;;;;;;5086675;28;993;-35
2022/05/07 13:53:19;;;;;;;;;;;27.50;33.00;;;;;;5090438;28;1028;-35
2022/05/07 13:55:45;;;;;;;;;;;27.40;33.20;;;;;;5090123;28;1664;-35
2022/05/07 13:58:13;;;;;;;;;;;27.40;33.10;;;;;;5091742;28;1906;-35
2022/05/07 14:00:41;;;;;;;;;;;27.30;33.20;;;;;;5091779;28;1905;-36
2022/05/07 14:03:08;;;;;;;;;;;27.30;33.00;;;;;;5091453;28;2186;-36
2022/05/07 14:05:35;;;;;;;;;;;27.30;32.50;;;;;;5091494;28;1008;-36
2022/05/07 14:08:04;;;;;;;;;;;27.20;32.30;;;;;;5093169;28;876;-36
2022/05/07 14:10:31;;;;;;;;;;;27.20;33.00;;;;;;5090715;28;952;-35
2022/05/07 14:12:58;;;;;;;;;;;27.20;32.70;;;;;;5092384;28;898;-36
2022/05/07 14:15:25;;;;;;;;;;;27.30;32.70;;;;;;5089119;28;1232;-36
2022/05/07 14:17:52;;;;;;;;;;;27.30;32.40;;;;;;5090663;28;1845;-35
2022/05/07 14:20:19;;;;;;;;;;;27.20;32.40;;;;;;5092026;28;1906;-36
2022/05/07 14:22:46;;;;;;;;;;;27.20;32.10;;;;;;5090200;28;990;-35
2022/05/07 14:25:14;;;;;;;;;;;27.20;32.00;;;;;;5090065;28;1253;-35
2022/05/07 14:27:41;;;;;;;;;;;27.20;32.10;;;;;;5090797;28;940;-35
2022/05/07 14:30:09;;;;;;;;;;;27.30;32.10;;;;;;5092721;28;970;-39
2022/05/07 14:32:38;;;;;;;;;;;27.30;31.80;;;;;;5090077;28;1027;-37
2022/05/07 14:35:06;;;;;;;;;;;27.30;31.70;;;;;;5089408;28;1019;-37
2022/05/07 14:37:33;;;;;;;;;;;27.40;32.00;;;;;;5088666;28;997;-37
2022/05/07 14:40:28;;;;;;;;;;;27.40;31.90;;;;;;5089412;28;1915;-37
2022/05/07 14:42:48;;;;;;;;;;;27.30;32.10;;;;;;5090133;28;908;-37
2022/05/07 14:45:16;;;;;;;;;;;27.40;32.50;;;;;;5088209;28;903;-37
2022/05/07 14:47:43;;;;;;;;;;;27.30;32.30;;;;;;5089154;28;1005;-37
2022/05/07 14:50:10;;;;;;;;;;;27.40;32.40;;;;;;5089171;28;993;-37
2022/05/07 14:52:37;;;;;;;;;;;27.30;32.40;;;;;;5089952;28;1499;-36
2022/05/07 14:55:05;;;;;;;;;;;27.40;32.40;;;;;;5089038;28;1023;-37
2022/05/07 14:57:32;;;;;;;;;;;27.50;32.70;;;;;;5089288;28;1556;-37
2022/05/07 15:00:01;;;;;;;;;;;27.50;33.30;;;;;;5087644;28;1901;-37
2022/05/07 15:02:28;;;;;;;;;;;27.50;33.20;;;;;;5087064;28;951;-37
2022/05/07 15:04:55;;;;;;;;;;;27.50;33.30;;;;;;5087308;28;960;-37
2022/05/07 15:07:22;;;;;;;;;;;27.50;33.20;;;;;;5087237;28;2108;-37
2022/05/07 15:12:35;;;;;;;;;;;27.50;33.50;;;;;;5088458;28;774;-38
2022/05/07 15:15:04;;;;;;;;;;;27.50;33.60;;;;;;5087012;28;981;-37
2022/05/07 15:17:31;;;;;;;;;;;27.50;33.70;;;;;;5087738;28;1012;-37
2022/05/07 15:19:58;;;;;;;;;;;27.40;33.90;;;;;;5086527;28;1926;-36
2022/05/07 15:22:26;;;;;;;;;;;27.40;34.00;;;;;;5086804;28;834;-36
2022/05/07 15:24:53;;;;;;;;;;;27.40;34.30;;;;;;5086325;28;1102;-37
2022/05/07 15:27:20;;;;;;;;;;;27.30;34.20;;;;;;5088205;28;1384;-36